sensor_id;sensor_type;location;lat;lon;timestamp;pressure;altitude;pressure_sealevel;temperature;humidity
38852;BME280;24605;50.092;9.182;2023-02-12T00:01:13;99926.13;;;4.61;100.00
38852;BME280;24605;50.092;9.182;2023-02-12T00:03:40;99919.50;;;4.55;100.00
38852;BME280;24605;50.092;9.182;2023-02-12T00:06:08;99918.16;;;4.48;100.00
38852;BME280;24605;50.092;9.182;2023-02-12T00:08:36;99919.13;;;4.46;100.00
38852;BME280;24605;50.092;9.182;2023-02-12T00:11:08;99917.72;;;4.40;100.00
38852;BME280;24605;50.092;9.182;2023-02-12T00:13:36;99903.19;;;4.36;100.00
38852;BME280;24605;50.092;9.182;2023-02-12T00:16:04;99897.13;;;4.53;100.00
38852;BME280;24605;50.092;9.182;2023-02-12T00:18:31;99922.19;;;4.70;100.00
38852;BME280;24605;50.092;9.182;2023-02-12T00:20:58;99909.53;;;4.64;100.00
38852;BME280;24605;50.092;9.182;2023-02-12T00:23:25;99917.91;;;4.69;100.00
38852;BME280;24605;50.092;9.182;2023-02-12T00:25:53;99911.88;;;4.52;100.00
38852;BME280;24605;50.092;9.182;2023-02-12T00:28:20;99922.00;;;4.57;100.00
38852;BME280;24605;50.092;9.182;2023-02-12T00:30:46;99931.81;;;4.52;100.00
38852;BME280;24605;50.092;9.182;2023-02-12T00:33:13;99921.06;;;4.42;100.00
38852;BME280;24605;50.092;9.182;2023-02-12T00:35:39;99917.06;;;4.52;100.00
38852;BME280;24605;50.092;9.182;2023-02-12T00:38:06;99916.31;;;4.66;100.00
38852;BME280;24605;50.092;9.182;2023-02-12T00:40:32;99921.91;;;4.43;100.00
38852;BME280;24605;50.092;9.182;2023-02-12T00:43:00;99923.16;;;4.35;100.00
38852;BME280;24605;50.092;9.182;2023-02-12T00:45:26;99910.41;;;4.31;100.00
38852;BME280;24605;50.092;9.182;2023-02-12T00:47:53;99913.38;;;4.23;100.00
38852;BME280;24605;50.092;9.182;2023-02-12T00:50:19;99892.41;;;4.10;100.00
38852;BME280;24605;50.092;9.182;2023-02-12T00:52:45;99907.59;;;4.18;100.00
38852;BME280;24605;50.092;9.182;2023-02-12T00:55:12;99903.84;;;4.06;100.00
38852;BME280;24605;50.092;9.182;2023-02-12T00:57:38;99884.34;;;3.81;100.00
38852;BME280;24605;50.092;9.182;2023-02-12T01:00:07;99900.78;;;3.82;100.00
38852;BME280;24605;50.092;9.182;2023-02-12T01:02:34;99898.63;;;3.72;100.00
38852;BME280;24605;50.092;9.182;2023-02-12T01:05:00;99877.34;;;3.48;100.00
38852;BME280;24605;50.092;9.182;2023-02-12T01:07:27;99901.59;;;3.65;100.00
38852;BME280;24605;50.092;9.182;2023-02-12T01:09:53;99905.56;;;3.54;100.00
38852;BME280;24605;50.092;9.182;2023-02-12T01:12:20;99900.91;;;3.61;100.00
38852;BME280;24605;50.092;9.182;2023-02-12T01:14:46;99895.13;;;3.56;100.00
38852;BME280;24605;50.092;9.182;2023-02-12T01:17:14;99898.63;;;3.55;100.00
38852;BME280;24605;50.092;9.182;2023-02-12T01:19:40;99845.63;;;3.25;100.00
38852;BME280;24605;50.092;9.182;2023-02-12T01:22:07;99892.59;;;3.54;100.00
38852;BME280;24605;50.092;9.182;2023-02-12T01:24:33;99896.31;;;3.66;100.00
38852;BME280;24605;50.092;9.182;2023-02-12T01:27:00;99901.50;;;3.66;100.00
38852;BME280;24605;50.092;9.182;2023-02-12T01:29:26;99900.84;;;3.80;100.00
38852;BME280;24605;50.092;9.182;2023-02-12T01:31:53;99901.59;;;4.00;100.00
38852;BME280;24605;50.092;9.182;2023-02-12T01:34:20;99902.03;;;4.08;100.00
38852;BME280;24605;50.092;9.182;2023-02-12T01:36:47;99906.69;;;4.01;100.00
38852;BME280;24605;50.092;9.182;2023-02-12T01:39:13;99905.31;;;4.45;100.00
38852;BME280;24605;50.092;9.182;2023-02-12T01:41:41;99897.19;;;4.51;100.00
38852;BME280;24605;50.092;9.182;2023-02-12T01:44:15;99879.75;;;4.37;100.00
38852;BME280;24605;50.092;9.182;2023-02-12T01:46:43;99885.03;;;4.36;100.00
38852;BME280;24605;50.092;9.182;2023-02-12T01:49:14;99890.03;;;4.23;100.00
38852;BME280;24605;50.092;9.182;2023-02-12T01:51:45;99868.59;;;4.19;100.00
38852;BME280;24605;50.092;9.182;2023-02-12T01:54:14;99867.38;;;4.43;100.00
38852;BME280;24605;50.092;9.182;2023-02-12T01:56:42;99869.72;;;4.47;100.00
38852;BME280;24605;50.092;9.182;2023-02-12T01:59:09;99888.91;;;4.61;100.00
38852;BME280;24605;50.092;9.182;2023-02-12T02:01:36;99876.16;;;4.40;100.00
38852;BME280;24605;50.092;9.182;2023-02-12T02:04:06;99880.84;;;4.33;100.00
38852;BME280;24605;50.092;9.182;2023-02-12T02:06:35;99878.81;;;4.38;100.00
38852;BME280;24605;50.092;9.182;2023-02-12T02:09:06;99843.63;;;4.17;100.00
38852;BME280;24605;50.092;9.182;2023-02-12T02:11:32;99887.47;;;4.39;100.00
38852;BME280;24605;50.092;9.182;2023-02-12T02:14:16;99867.63;;;4.38;100.00
38852;BME280;24605;50.092;9.182;2023-02-12T02:17:16;99884.91;;;4.21;100.00
38852;BME280;24605;50.092;9.182;2023-02-12T02:20:08;99868.63;;;4.02;100.00
38852;BME280;24605;50.092;9.182;2023-02-12T02:22:42;99885.31;;;4.14;100.00
38852;BME280;24605;50.092;9.182;2023-02-12T02:25:37;99890.72;;;4.09;100.00
38852;BME280;24605;50.092;9.182;2023-02-12T02:28:23;99897.03;;;4.05;100.00
38852;BME280;24605;50.092;9.182;2023-02-12T02:31:03;99890.16;;;4.04;100.00
38852;BME280;24605;50.092;9.182;2023-02-12T02:33:36;99884.97;;;4.04;100.00
38852;BME280;24605;50.092;9.182;2023-02-12T02:36:13;99882.94;;;4.09;100.00
38852;BME280;24605;50.092;9.182;2023-02-12T02:38:44;99889.91;;;4.08;100.00
38852;BME280;24605;50.092;9.182;2023-02-12T02:41:17;99887.81;;;4.15;100.00
38852;BME280;24605;50.092;9.182;2023-02-12T02:43:47;99893.19;;;4.12;100.00
38852;BME280;24605;50.092;9.182;2023-02-12T02:46:19;99874.56;;;4.04;100.00
38852;BME280;24605;50.092;9.182;2023-02-12T02:48:51;99895.78;;;4.12;100.00
38852;BME280;24605;50.092;9.182;2023-02-12T02:51:21;99886.91;;;4.16;100.00
38852;BME280;24605;50.092;9.182;2023-02-12T02:53:53;99883.88;;;4.08;100.00
38852;BME280;24605;50.092;9.182;2023-02-12T02:56:23;99887.66;;;4.18;100.00
38852;BME280;24605;50.092;9.182;2023-02-12T02:58:54;99895.31;;;4.21;100.00
38852;BME280;24605;50.092;9.182;2023-02-12T03:01:27;99890.25;;;4.18;100.00
38852;BME280;24605;50.092;9.182;2023-02-12T03:03:59;99892.22;;;4.31;100.00
38852;BME280;24605;50.092;9.182;2023-02-12T03:06:33;99882.16;;;4.24;100.00
38852;BME280;24605;50.092;9.182;2023-02-12T03:09:08;99882.09;;;4.42;100.00
38852;BME280;24605;50.092;9.182;2023-02-12T03:11:37;99891.75;;;4.40;100.00
38852;BME280;24605;50.092;9.182;2023-02-12T03:14:08;99902.81;;;4.60;100.00
38852;BME280;24605;50.092;9.182;2023-02-12T03:16:43;99901.06;;;4.60;100.00
38852;BME280;24605;50.092;9.182;2023-02-12T03:19:17;99897.13;;;4.53;100.00
38852;BME280;24605;50.092;9.182;2023-02-12T03:21:47;99902.91;;;4.58;100.00
38852;BME280;24605;50.092;9.182;2023-02-12T03:24:19;99903.91;;;4.55;100.00
38852;BME280;24605;50.092;9.182;2023-02-12T03:26:49;99898.78;;;4.54;100.00
38852;BME280;24605;50.092;9.182;2023-02-12T03:29:17;99896.94;;;4.56;100.00
38852;BME280;24605;50.092;9.182;2023-02-12T03:31:57;99897.22;;;4.67;100.00
38852;BME280;24605;50.092;9.182;2023-02-12T03:34:29;99903.88;;;4.89;100.00
38852;BME280;24605;50.092;9.182;2023-02-12T03:37:02;99909.88;;;4.90;100.00
38852;BME280;24605;50.092;9.182;2023-02-12T03:39:36;99890.84;;;4.57;100.00
38852;BME280;24605;50.092;9.182;2023-02-12T03:42:06;99904.50;;;4.61;100.00
38852;BME280;24605;50.092;9.182;2023-02-12T03:44:46;99900.22;;;4.60;100.00
38852;BME280;24605;50.092;9.182;2023-02-12T03:47:20;99899.63;;;4.54;100.00
38852;BME280;24605;50.092;9.182;2023-02-12T03:49:53;99897.28;;;4.50;100.00
38852;BME280;24605;50.092;9.182;2023-02-12T03:52:21;99903.06;;;4.55;100.00
38852;BME280;24605;50.092;9.182;2023-02-12T03:54:48;99905.84;;;4.52;100.00
38852;BME280;24605;50.092;9.182;2023-02-12T03:57:17;99905.16;;;4.48;100.00
38852;BME280;24605;50.092;9.182;2023-02-12T03:59:45;99910.06;;;4.70;100.00
38852;BME280;24605;50.092;9.182;2023-02-12T04:02:13;99912.91;;;4.66;100.00
38852;BME280;24605;50.092;9.182;2023-02-12T04:04:42;99899.41;;;4.75;100.00
38852;BME280;24605;50.092;9.182;2023-02-12T04:07:09;99901.50;;;5.00;100.00
38852;BME280;24605;50.092;9.182;2023-02-12T04:09:36;99914.91;;;4.77;100.00
38852;BME280;24605;50.092;9.182;2023-02-12T04:12:16;99918.78;;;4.69;100.00
38852;BME280;24605;50.092;9.182;2023-02-12T04:14:52;99914.22;;;4.57;100.00
38852;BME280;24605;50.092;9.182;2023-02-12T04:17:27;99913.69;;;4.50;100.00
38852;BME280;24605;50.092;9.182;2023-02-12T04:20:04;99894.50;;;4.37;100.00
38852;BME280;24605;50.092;9.182;2023-02-12T04:22:42;99923.22;;;4.34;100.00
38852;BME280;24605;50.092;9.182;2023-02-12T04:25:19;99920.47;;;4.37;100.00
38852;BME280;24605;50.092;9.182;2023-02-12T04:27:48;99925.13;;;4.30;100.00
38852;BME280;24605;50.092;9.182;2023-02-12T04:30:22;99920.84;;;4.29;100.00
38852;BME280;24605;50.092;9.182;2023-02-12T04:32:53;99928.53;;;4.48;100.00
38852;BME280;24605;50.092;9.182;2023-02-12T04:35:26;99918.41;;;4.44;100.00
38852;BME280;24605;50.092;9.182;2023-02-12T04:38:01;99934.31;;;4.53;100.00
38852;BME280;24605;50.092;9.182;2023-02-12T04:40:30;99934.66;;;4.47;100.00
38852;BME280;24605;50.092;9.182;2023-02-12T04:42:57;99931.84;;;4.34;100.00
38852;BME280;24605;50.092;9.182;2023-02-12T04:45:26;99930.28;;;4.48;100.00
38852;BME280;24605;50.092;9.182;2023-02-12T04:47:53;99921.81;;;4.44;100.00
38852;BME280;24605;50.092;9.182;2023-02-12T04:50:20;99943.50;;;4.43;100.00
38852;BME280;24605;50.092;9.182;2023-02-12T04:52:48;99944.75;;;4.36;100.00
38852;BME280;24605;50.092;9.182;2023-02-12T04:55:14;99942.06;;;4.37;100.00
38852;BME280;24605;50.092;9.182;2023-02-12T04:57:41;99940.84;;;4.45;100.00
38852;BME280;24605;50.092;9.182;2023-02-12T05:00:10;99920.94;;;4.28;100.00
38852;BME280;24605;50.092;9.182;2023-02-12T05:02:37;99941.63;;;4.29;100.00
38852;BME280;24605;50.092;9.182;2023-02-12T05:05:05;99934.38;;;4.18;100.00
38852;BME280;24605;50.092;9.182;2023-02-12T05:07:35;99902.22;;;4.05;100.00
38852;BME280;24605;50.092;9.182;2023-02-12T05:10:03;99926.91;;;4.30;100.00
38852;BME280;24605;50.092;9.182;2023-02-12T05:12:30;99925.41;;;4.42;100.00
38852;BME280;24605;50.092;9.182;2023-02-12T05:14:56;99922.97;;;4.38;100.00
38852;BME280;24605;50.092;9.182;2023-02-12T05:17:23;99930.28;;;4.48;100.00
38852;BME280;24605;50.092;9.182;2023-02-12T05:19:50;99931.38;;;4.60;100.00
38852;BME280;24605;50.092;9.182;2023-02-12T05:22:17;99924.59;;;4.57;100.00
38852;BME280;24605;50.092;9.182;2023-02-12T05:24:43;99930.03;;;4.52;100.00
38852;BME280;24605;50.092;9.182;2023-02-12T05:27:12;99929.31;;;4.33;100.00
38852;BME280;24605;50.092;9.182;2023-02-12T05:29:39;99922.63;;;4.29;100.00
38852;BME280;24605;50.092;9.182;2023-02-12T05:32:06;99931.25;;;4.29;100.00
38852;BME280;24605;50.092;9.182;2023-02-12T05:34:33;99924.78;;;4.20;100.00
38852;BME280;24605;50.092;9.182;2023-02-12T05:36:59;99923.78;;;4.23;100.00
38852;BME280;24605;50.092;9.182;2023-02-12T05:39:26;99936.53;;;4.28;100.00
38852;BME280;24605;50.092;9.182;2023-02-12T05:41:52;99914.97;;;4.26;100.00
38852;BME280;24605;50.092;9.182;2023-02-12T05:44:20;99936.13;;;4.35;100.00
38852;BME280;24605;50.092;9.182;2023-02-12T05:46:46;99933.41;;;4.54;100.00
38852;BME280;24605;50.092;9.182;2023-02-12T05:49:13;99942.75;;;4.41;100.00
38852;BME280;24605;50.092;9.182;2023-02-12T05:51:40;99923.09;;;4.19;100.00
38852;BME280;24605;50.092;9.182;2023-02-12T05:54:07;99943.16;;;4.33;100.00
38852;BME280;24605;50.092;9.182;2023-02-12T05:56:35;99943.31;;;4.30;100.00
38852;BME280;24605;50.092;9.182;2023-02-12T05:59:04;99949.41;;;4.29;100.00
38852;BME280;24605;50.092;9.182;2023-02-12T06:01:34;99933.47;;;4.19;100.00
38852;BME280;24605;50.092;9.182;2023-02-12T06:04:02;99946.13;;;4.26;100.00
38852;BME280;24605;50.092;9.182;2023-02-12T06:06:30;99947.13;;;4.23;100.00
38852;BME280;24605;50.092;9.182;2023-02-12T06:08:58;99957.59;;;4.21;100.00
38852;BME280;24605;50.092;9.182;2023-02-12T06:11:25;99948.66;;;4.27;100.00
38852;BME280;24605;50.092;9.182;2023-02-12T06:13:52;99953.69;;;4.30;100.00
38852;BME280;24605;50.092;9.182;2023-02-12T06:16:19;99936.22;;;4.16;100.00
38852;BME280;24605;50.092;9.182;2023-02-12T06:18:48;99955.47;;;4.30;100.00
38852;BME280;24605;50.092;9.182;2023-02-12T06:21:15;99951.84;;;4.32;100.00
38852;BME280;24605;50.092;9.182;2023-02-12T06:23:42;99948.13;;;4.38;100.00
38852;BME280;24605;50.092;9.182;2023-02-12T06:26:09;99959.78;;;4.29;100.00
38852;BME280;24605;50.092;9.182;2023-02-12T06:28:35;99937.16;;;3.98;100.00
38852;BME280;24605;50.092;9.182;2023-02-12T06:31:02;99963.47;;;4.25;100.00
38852;BME280;24605;50.092;9.182;2023-02-12T06:33:29;99951.53;;;4.38;100.00
38852;BME280;24605;50.092;9.182;2023-02-12T06:35:57;99958.06;;;4.30;100.00
38852;BME280;24605;50.092;9.182;2023-02-12T06:38:23;99966.44;;;4.35;100.00
38852;BME280;24605;50.092;9.182;2023-02-12T06:40:49;99962.81;;;4.21;100.00
38852;BME280;24605;50.092;9.182;2023-02-12T06:43:16;99945.69;;;4.17;100.00
38852;BME280;24605;50.092;9.182;2023-02-12T06:45:43;99963.03;;;4.17;100.00
38852;BME280;24605;50.092;9.182;2023-02-12T06:48:09;99973.00;;;4.24;100.00
38852;BME280;24605;50.092;9.182;2023-02-12T06:50:35;99969.59;;;4.24;100.00
38852;BME280;24605;50.092;9.182;2023-02-12T06:53:03;99977.91;;;4.31;100.00
38852;BME280;24605;50.092;9.182;2023-02-12T06:55:30;99968.44;;;4.30;100.00
38852;BME280;24605;50.092;9.182;2023-02-12T06:57:56;99980.41;;;4.32;100.00
38852;BME280;24605;50.092;9.182;2023-02-12T07:00:23;99985.81;;;4.45;100.00
38852;BME280;24605;50.092;9.182;2023-02-12T07:02:53;99975.34;;;4.47;100.00
38852;BME280;24605;50.092;9.182;2023-02-12T07:05:21;99987.19;;;4.52;100.00
38852;BME280;24605;50.092;9.182;2023-02-12T07:07:48;99965.44;;;4.37;100.00
38852;BME280;24605;50.092;9.182;2023-02-12T07:10:16;99967.56;;;4.47;100.00
38852;BME280;24605;50.092;9.182;2023-02-12T07:12:43;99989.09;;;4.49;100.00
38852;BME280;24605;50.092;9.182;2023-02-12T07:15:10;99989.97;;;4.49;100.00
38852;BME280;24605;50.092;9.182;2023-02-12T07:17:37;99988.00;;;4.70;100.00
38852;BME280;24605;50.092;9.182;2023-02-12T07:20:04;99990.69;;;4.85;100.00
38852;BME280;24605;50.092;9.182;2023-02-12T07:22:30;99989.19;;;4.97;100.00
38852;BME280;24605;50.092;9.182;2023-02-12T07:25:00;99997.06;;;4.79;100.00
38852;BME280;24605;50.092;9.182;2023-02-12T07:27:28;99996.09;;;4.64;100.00
38852;BME280;24605;50.092;9.182;2023-02-12T07:29:55;99988.34;;;4.80;100.00
38852;BME280;24605;50.092;9.182;2023-02-12T07:32:21;99995.06;;;4.84;100.00
38852;BME280;24605;50.092;9.182;2023-02-12T07:34:48;99983.03;;;4.66;100.00
38852;BME280;24605;50.092;9.182;2023-02-12T07:37:14;100004.25;;;4.74;100.00
38852;BME280;24605;50.092;9.182;2023-02-12T07:39:46;99990.59;;;4.70;100.00
38852;BME280;24605;50.092;9.182;2023-02-12T07:42:13;99999.41;;;4.84;100.00
38852;BME280;24605;50.092;9.182;2023-02-12T07:47:16;100007.47;;;4.95;100.00
38852;BME280;24605;50.092;9.182;2023-02-12T07:49:42;100012.00;;;5.08;100.00
38852;BME280;24605;50.092;9.182;2023-02-12T07:52:09;100003.78;;;4.99;100.00
38852;BME280;24605;50.092;9.182;2023-02-12T07:54:35;100015.72;;;5.04;100.00
38852;BME280;24605;50.092;9.182;2023-02-12T07:57:02;100015.75;;;5.20;100.00
38852;BME280;24605;50.092;9.182;2023-02-12T07:59:28;100012.53;;;5.14;100.00
38852;BME280;24605;50.092;9.182;2023-02-12T08:01:55;100019.84;;;5.40;100.00
38852;BME280;24605;50.092;9.182;2023-02-12T08:04:24;100017.91;;;5.59;100.00
38852;BME280;24605;50.092;9.182;2023-02-12T08:06:53;100029.31;;;5.57;100.00
38852;BME280;24605;50.092;9.182;2023-02-12T08:09:21;100032.50;;;5.46;100.00
38852;BME280;24605;50.092;9.182;2023-02-12T08:11:48;100031.84;;;5.42;100.00
38852;BME280;24605;50.092;9.182;2023-02-12T08:14:18;100033.91;;;5.84;100.00
38852;BME280;24605;50.092;9.182;2023-02-12T08:16:46;99964.66;;;5.18;100.00
38852;BME280;24605;50.092;9.182;2023-02-12T08:19:13;100033.28;;;5.48;100.00
38852;BME280;24605;50.092;9.182;2023-02-12T08:21:41;100013.56;;;5.28;100.00
38852;BME280;24605;50.092;9.182;2023-02-12T08:24:09;100033.03;;;5.53;100.00
38852;BME280;24605;50.092;9.182;2023-02-12T08:26:37;100045.44;;;5.63;100.00
38852;BME280;24605;50.092;9.182;2023-02-12T08:29:05;100046.09;;;5.67;100.00
38852;BME280;24605;50.092;9.182;2023-02-12T08:31:34;100043.66;;;5.80;100.00
38852;BME280;24605;50.092;9.182;2023-02-12T08:34:02;100044.66;;;5.93;100.00
38852;BME280;24605;50.092;9.182;2023-02-12T08:36:30;100056.81;;;5.93;100.00
38852;BME280;24605;50.092;9.182;2023-02-12T08:38:58;100050.94;;;5.89;100.00
38852;BME280;24605;50.092;9.182;2023-02-12T08:41:26;100007.97;;;5.66;100.00
38852;BME280;24605;50.092;9.182;2023-02-12T08:43:54;100050.94;;;6.05;100.00
38852;BME280;24605;50.092;9.182;2023-02-12T08:46:22;100048.78;;;6.28;100.00
38852;BME280;24605;50.092;9.182;2023-02-12T08:48:51;100044.50;;;6.27;100.00
38852;BME280;24605;50.092;9.182;2023-02-12T08:51:20;100054.31;;;6.07;100.00
38852;BME280;24605;50.092;9.182;2023-02-12T08:53:50;100046.81;;;6.32;100.00
38852;BME280;24605;50.092;9.182;2023-02-12T08:56:19;100056.00;;;6.39;100.00
38852;BME280;24605;50.092;9.182;2023-02-12T08:58:46;100060.47;;;6.21;100.00
38852;BME280;24605;50.092;9.182;2023-02-12T09:01:15;100060.72;;;6.32;100.00
38852;BME280;24605;50.092;9.182;2023-02-12T09:03:42;100038.69;;;6.07;100.00
38852;BME280;24605;50.092;9.182;2023-02-12T09:06:09;100065.16;;;6.30;100.00
38852;BME280;24605;50.092;9.182;2023-02-12T09:08:36;100067.47;;;6.51;100.00
38852;BME280;24605;50.092;9.182;2023-02-12T09:11:04;100047.16;;;6.41;100.00
38852;BME280;24605;50.092;9.182;2023-02-12T09:13:34;100061.63;;;6.76;100.00
38852;BME280;24605;50.092;9.182;2023-02-12T09:16:01;100065.06;;;6.91;100.00
38852;BME280;24605;50.092;9.182;2023-02-12T09:18:29;100059.09;;;6.89;100.00
38852;BME280;24605;50.092;9.182;2023-02-12T09:20:59;100063.50;;;6.88;100.00
38852;BME280;24605;50.092;9.182;2023-02-12T09:23:26;100055.78;;;7.01;100.00
38852;BME280;24605;50.092;9.182;2023-02-12T09:25:52;100064.78;;;7.10;100.00
38852;BME280;24605;50.092;9.182;2023-02-12T09:28:19;100064.97;;;6.93;100.00
38852;BME280;24605;50.092;9.182;2023-02-12T09:30:47;100064.16;;;6.78;100.00
38852;BME280;24605;50.092;9.182;2023-02-12T09:33:13;100068.41;;;6.64;100.00
38852;BME280;24605;50.092;9.182;2023-02-12T09:35:40;100065.91;;;6.77;100.00
38852;BME280;24605;50.092;9.182;2023-02-12T09:38:07;100049.06;;;6.68;100.00
38852;BME280;24605;50.092;9.182;2023-02-12T09:40:39;100064.53;;;6.86;100.00
38852;BME280;24605;50.092;9.182;2023-02-12T09:43:15;100064.13;;;7.06;100.00
38852;BME280;24605;50.092;9.182;2023-02-12T09:45:49;100020.00;;;6.74;100.00
38852;BME280;24605;50.092;9.182;2023-02-12T09:51:04;100056.28;;;7.35;100.00
38852;BME280;24605;50.092;9.182;2023-02-12T09:53:33;100057.88;;;7.80;100.00
38852;BME280;24605;50.092;9.182;2023-02-12T09:56:00;100055.84;;;7.71;100.00
38852;BME280;24605;50.092;9.182;2023-02-12T09:58:28;100064.59;;;7.69;100.00
38852;BME280;24605;50.092;9.182;2023-02-12T10:00:58;100064.66;;;7.82;100.00
38852;BME280;24605;50.092;9.182;2023-02-12T10:03:25;100062.25;;;7.37;100.00
38852;BME280;24605;50.092;9.182;2023-02-12T10:05:55;100055.09;;;7.27;100.00
38852;BME280;24605;50.092;9.182;2023-02-12T10:11:15;100058.63;;;7.82;100.00
38852;BME280;24605;50.092;9.182;2023-02-12T10:13:46;100057.22;;;7.76;100.00
38852;BME280;24605;50.092;9.182;2023-02-12T10:16:18;100059.13;;;7.87;100.00
38852;BME280;24605;50.092;9.182;2023-02-12T10:18:49;100059.50;;;7.68;100.00
38852;BME280;24605;50.092;9.182;2023-02-12T10:21:21;100062.38;;;7.63;100.00
38852;BME280;24605;50.092;9.182;2023-02-12T10:24:06;100062.22;;;7.66;100.00
38852;BME280;24605;50.092;9.182;2023-02-12T10:26:41;100061.97;;;7.84;100.00
38852;BME280;24605;50.092;9.182;2023-02-12T10:29:10;100059.66;;;8.20;100.00
38852;BME280;24605;50.092;9.182;2023-02-12T10:31:40;100061.59;;;7.76;100.00
38852;BME280;24605;50.092;9.182;2023-02-12T10:34:11;100065.59;;;7.81;100.00
38852;BME280;24605;50.092;9.182;2023-02-12T10:36:41;100050.03;;;8.20;100.00
38852;BME280;24605;50.092;9.182;2023-02-12T10:39:11;100047.88;;;8.40;100.00
38852;BME280;24605;50.092;9.182;2023-02-12T10:41:39;100050.34;;;8.69;100.00
38852;BME280;24605;50.092;9.182;2023-02-12T10:44:08;100043.63;;;8.65;100.00
38852;BME280;24605;50.092;9.182;2023-02-12T10:46:35;100042.56;;;8.28;100.00
38852;BME280;24605;50.092;9.182;2023-02-12T10:49:03;100036.84;;;8.88;100.00
38852;BME280;24605;50.092;9.182;2023-02-12T10:51:43;100039.75;;;9.46;100.00
38852;BME280;24605;50.092;9.182;2023-02-12T10:54:32;100038.09;;;9.45;100.00
38852;BME280;24605;50.092;9.182;2023-02-12T10:56:59;100034.41;;;9.61;100.00
38852;BME280;24605;50.092;9.182;2023-02-12T10:59:32;100032.06;;;9.32;100.00
38852;BME280;24605;50.092;9.182;2023-02-12T11:01:58;100027.09;;;9.03;100.00
38852;BME280;24605;50.092;9.182;2023-02-12T11:04:27;100028.63;;;9.18;100.00
38852;BME280;24605;50.092;9.182;2023-02-12T11:06:55;100031.28;;;8.92;100.00
38852;BME280;24605;50.092;9.182;2023-02-12T11:09:26;100030.78;;;8.87;100.00
38852;BME280;24605;50.092;9.182;2023-02-12T11:11:53;100025.84;;;8.96;100.00
38852;BME280;24605;50.092;9.182;2023-02-12T11:14:20;100017.91;;;9.34;100.00
38852;BME280;24605;50.092;9.182;2023-02-12T11:16:50;100024.50;;;8.77;100.00
38852;BME280;24605;50.092;9.182;2023-02-12T11:19:18;100020.28;;;8.23;100.00
38852;BME280;24605;50.092;9.182;2023-02-12T11:21:47;100016.78;;;8.09;100.00
38852;BME280;24605;50.092;9.182;2023-02-12T11:24:25;100005.44;;;7.83;100.00
38852;BME280;24605;50.092;9.182;2023-02-12T11:26:58;99999.91;;;7.75;100.00
38852;BME280;24605;50.092;9.182;2023-02-12T11:29:36;99995.38;;;7.77;100.00
38852;BME280;24605;50.092;9.182;2023-02-12T11:32:03;99995.56;;;8.01;100.00
38852;BME280;24605;50.092;9.182;2023-02-12T11:34:32;99994.13;;;8.10;100.00
38852;BME280;24605;50.092;9.182;2023-02-12T11:37:00;99989.56;;;8.39;100.00
38852;BME280;24605;50.092;9.182;2023-02-12T11:39:27;99990.94;;;8.45;100.00
38852;BME280;24605;50.092;9.182;2023-02-12T11:41:54;99986.66;;;8.57;100.00
38852;BME280;24605;50.092;9.182;2023-02-12T11:44:22;99982.34;;;8.82;100.00
38852;BME280;24605;50.092;9.182;2023-02-12T11:46:50;99988.84;;;8.63;100.00
38852;BME280;24605;50.092;9.182;2023-02-12T11:49:20;99986.34;;;8.49;100.00
38852;BME280;24605;50.092;9.182;2023-02-12T11:51:48;99980.25;;;8.87;100.00
38852;BME280;24605;50.092;9.182;2023-02-12T11:54:18;99983.72;;;8.74;100.00
38852;BME280;24605;50.092;9.182;2023-02-12T11:56:46;99978.38;;;8.76;100.00
38852;BME280;24605;50.092;9.182;2023-02-12T11:59:19;99981.72;;;9.28;100.00
38852;BME280;24605;50.092;9.182;2023-02-12T12:01:46;99978.22;;;9.16;100.00
38852;BME280;24605;50.092;9.182;2023-02-12T12:04:14;99974.03;;;9.01;100.00
38852;BME280;24605;50.092;9.182;2023-02-12T12:06:43;99972.31;;;9.50;100.00
38852;BME280;24605;50.092;9.182;2023-02-12T12:09:12;99984.06;;;9.44;100.00
38852;BME280;24605;50.092;9.182;2023-02-12T12:11:46;99966.59;;;9.69;100.00
38852;BME280;24605;50.092;9.182;2023-02-12T12:14:15;99964.09;;;9.43;100.00
38852;BME280;24605;50.092;9.182;2023-02-12T12:16:46;99954.03;;;9.61;100.00
38852;BME280;24605;50.092;9.182;2023-02-12T12:19:32;99955.94;;;9.59;100.00
38852;BME280;24605;50.092;9.182;2023-02-12T12:22:17;99964.97;;;9.55;100.00
38852;BME280;24605;50.092;9.182;2023-02-12T12:24:49;99963.63;;;9.74;100.00
38852;BME280;24605;50.092;9.182;2023-02-12T12:27:21;99960.06;;;9.86;100.00
38852;BME280;24605;50.092;9.182;2023-02-12T12:30:10;99959.28;;;9.97;100.00
38852;BME280;24605;50.092;9.182;2023-02-12T12:32:41;99958.22;;;9.99;100.00
38852;BME280;24605;50.092;9.182;2023-02-12T12:35:10;99958.09;;;10.01;100.00
38852;BME280;24605;50.092;9.182;2023-02-12T12:37:41;99951.09;;;9.66;100.00
38852;BME280;24605;50.092;9.182;2023-02-12T12:40:15;99951.59;;;9.47;100.00
38852;BME280;24605;50.092;9.182;2023-02-12T12:42:58;99901.94;;;9.34;100.00
38852;BME280;24605;50.092;9.182;2023-02-12T12:45:38;99946.19;;;9.37;100.00
38852;BME280;24605;50.092;9.182;2023-02-12T12:48:14;99947.38;;;9.33;100.00
38852;BME280;24605;50.092;9.182;2023-02-12T12:50:48;99944.47;;;9.24;100.00
38852;BME280;24605;50.092;9.182;2023-02-12T12:53:24;99935.63;;;9.38;100.00
38852;BME280;24605;50.092;9.182;2023-02-12T12:56:04;99931.97;;;9.52;100.00
38852;BME280;24605;50.092;9.182;2023-02-12T12:58:38;99929.06;;;9.68;100.00
38852;BME280;24605;50.092;9.182;2023-02-12T13:01:19;99931.94;;;10.12;100.00
38852;BME280;24605;50.092;9.182;2023-02-12T13:06:41;99929.75;;;10.06;100.00
38852;BME280;24605;50.092;9.182;2023-02-12T13:09:18;99924.06;;;10.24;99.20
38852;BME280;24605;50.092;9.182;2023-02-12T13:11:52;99932.47;;;9.82;100.00
38852;BME280;24605;50.092;9.182;2023-02-12T13:14:34;99927.22;;;9.82;100.00
38852;BME280;24605;50.092;9.182;2023-02-12T13:17:03;99931.13;;;9.76;100.00
38852;BME280;24605;50.092;9.182;2023-02-12T13:19:37;99923.75;;;9.81;100.00
38852;BME280;24605;50.092;9.182;2023-02-12T13:22:07;99924.47;;;9.83;100.00